Boonsboro, MD

6:47 AM EDT on September 16, 2014 (GMT -0400)
Frederick Municipal | Change Station
CLOSE
Current Station
Airport
Location: Frederick,
Elevation: 302 ft
Nearby Weather Stations

Elev 302 ft 39.42 °N, 77.37 °W | Updated 17 minutes ago

Overcast
Overcast
55 °F
Feels Like 55 °F
N
0
Wind Variable Wind from North

Today
High -- | Low -- °F
--% Chance of Precip.
Yesterday
High -- | Low -- °F
Precip. -- in
6:52 AM 7:17 PM
Waning Gibbous, 46% visible
Pressure 30.04 in
Visibility 1.5 miles
Clouds Mostly Cloudy 300 ft
Overcast 12000 ft
Dew Point 55 °F
Humidity 100%
Rainfall 0.00 in
Snow Depth Not available.
UV 0 out of 12
Pollen 4.60 out of 12
Air Quality Not available.
Flu Activity Not available.
METAR KFDK 161030Z AUTO 00000KT 1 1/2SM BR BKN003 OVC120 13/13 A3004 RMK AO2 VIS 1/2V3

More Conditions Fewer Conditions

Pressure 30.04 in
Visibility 1.5 miles
Clouds Mostly Cloudy 300 ft
Overcast 12000 ft
Dew Point 55 °F
Humidity 100%
Rainfall 0.00 in
Snow Depth Not available.
UV 0 out of 12
Pollen 4.60 out of 12
Air Quality Not available.
Flu Activity Not available.
METAR KFDK 161030Z AUTO 00000KT 1 1/2SM BR BKN003 OVC120 13/13 A3004 RMK AO2 VIS 1/2V3

More Conditions Fewer Conditions

10-Day Weather Forecast

Almanac

Astronomy

Sep. 16, 2014 Rise Set
Actual Time 6:52 AM EDT 7:17 PM EDT
Civil Twilight 6:25 AM EDT 7:44 PM EDT
Nautical Twilight 5:54 AM EDT 8:16 PM EDT
Astronomical Twilight 5:21 AM EDT 8:48 PM EDT
Moon 12:01 AM EDT 2:38 PM EDT
Length of Visible Light 13h 18m
Length of Day
12h 24m
Tomorrow will be 2m 33s shorter.
Waning Gibbous, 46% of the Moon is Illuminated
Today
Waning Gibbous
Sep 24
New
Oct 1
First Quarter
Oct 8
Full
Oct 15
Last Quarter

Today's Extremes

State Highs State Lows

Community

WunderPhotos

Upload Photos

1,753,720 photos uploaded!

WunderBlogs® & News

Nearby

Snow Depth

Station Depth Elevation
No new snow has been reported.

Earthquake Activity

City Distance Mag. Time & Date
No recent earthquake activity has been reported nearby.
Minimum magnitude displayed is 2.5.

Coastal Water Temperatures

Place Temperature
No Stations Reporting

Nearby Weather Stations